NKS9927 KBNA-KGYR
Flight info
| Callsign | NKS9927 |
|---|---|
| Flight time | N/A |
| Altitude | 38000 |
| Route | PARDN4 NAKIY KRTNY PER AGGIY Q162 MIRME LOWBO INW DSERT2 |
| Aircraft | A21N/M-SDE3FGHIRWY/LB1 |
Departure
| Time | 2026-05-08 00:06 |
|---|---|
| Airport | Nashville International Airport (KBNA) |
Arrival
| Time | N/A |
|---|---|
| Airport | Phoenix Goodyear Airport (KGYR) |
| Time | Latitude | Longitude | Altitude | Speed | Heading |
|---|---|---|---|---|---|
| 2026-05-07 23:50 | 36.13562 | -86.67326 | 607 ft | 0 kts | 233° |
| 2026-05-08 00:00 | 36.13558 | -86.67333 | 607 ft | 2 kts | 229° |
| 2026-05-08 00:01 | 36.13524 | -86.67464 | 607 ft | 25 kts | 286° |
| 2026-05-08 00:01 | 36.13581 | -86.67668 | 607 ft | 22 kts | 288° |
| 2026-05-08 00:01 | 36.13492 | -86.67776 | 607 ft | 32 kts | 201° |
| 2026-05-08 00:01 | 36.13280 | -86.67868 | 607 ft | 30 kts | 198° |
| 2026-05-08 00:02 | 36.13073 | -86.67951 | 607 ft | 32 kts | 197° |
| 2026-05-08 00:02 | 36.12852 | -86.68036 | 607 ft | 33 kts | 196° |
| 2026-05-08 00:02 | 36.12644 | -86.68114 | 607 ft | 30 kts | 196° |
| 2026-05-08 00:02 | 36.12435 | -86.68190 | 607 ft | 31 kts | 197° |
| 2026-05-08 00:03 | 36.12228 | -86.68265 | 607 ft | 31 kts | 196° |
| 2026-05-08 00:03 | 36.12014 | -86.68337 | 607 ft | 31 kts | 195° |
| 2026-05-08 00:03 | 36.11846 | -86.68401 | 607 ft | 19 kts | 198° |
| 2026-05-08 00:03 | 36.11738 | -86.68453 | 607 ft | 9 kts | 231° |
| 2026-05-08 00:04 | 36.11747 | -86.68529 | 607 ft | 6 kts | 291° |
| 2026-05-08 00:04 | 36.11748 | -86.68533 | 607 ft | 0 kts | 290° |
| 2026-05-08 00:05 | 36.11752 | -86.68549 | 607 ft | 3 kts | 290° |
| 2026-05-08 00:05 | 36.11773 | -86.68611 | 607 ft | 13 kts | 299° |
| 2026-05-08 00:05 | 36.11917 | -86.68588 | 607 ft | 56 kts | 16° |
| 2026-05-08 00:05 | 36.12584 | -86.68330 | 607 ft | 141 kts | 16° |
| 2026-05-08 00:06 | 36.13613 | -86.67947 | 1213 ft | 160 kts | 14° |
| 2026-05-08 00:06 | 36.14656 | -86.67543 | 2173 ft | 161 kts | 15° |
| 2026-05-08 00:06 | 36.15677 | -86.67102 | 3111 ft | 157 kts | 11° |
| 2026-05-08 00:06 | 36.16701 | -86.67075 | 3839 ft | 153 kts | 343° |
| 2026-05-08 00:07 | 36.17728 | -86.67467 | 4489 ft | 161 kts | 337° |
| 2026-05-08 00:07 | 36.18824 | -86.67944 | 5037 ft | 178 kts | 337° |
| 2026-05-08 00:07 | 36.20043 | -86.68444 | 5601 ft | 195 kts | 338° |
| 2026-05-08 00:07 | 36.21386 | -86.68961 | 6159 ft | 215 kts | 339° |
| 2026-05-08 00:08 | 36.22884 | -86.69516 | 6799 ft | 235 kts | 339° |
| 2026-05-08 00:08 | 36.24506 | -86.70100 | 7461 ft | 254 kts | 339° |
| 2026-05-08 00:08 | 36.26201 | -86.70817 | 8226 ft | 264 kts | 328° |
| 2026-05-08 00:08 | 36.27584 | -86.72250 | 9186 ft | 263 kts | 304° |
| 2026-05-08 00:09 | 36.28355 | -86.74236 | 10175 ft | 262 kts | 282° |
| 2026-05-08 00:09 | 36.28423 | -86.76506 | 10935 ft | 272 kts | 263° |
| 2026-05-08 00:09 | 36.28077 | -86.78904 | 11465 ft | 290 kts | 260° |
| 2026-05-08 00:09 | 36.27687 | -86.81426 | 11925 ft | 308 kts | 261° |
| 2026-05-08 00:10 | 36.27411 | -86.83866 | 12301 ft | 325 kts | 264° |
| 2026-05-08 00:10 | 36.27240 | -86.86754 | 12711 ft | 342 kts | 268° |
| 2026-05-08 00:10 | 36.27206 | -86.89738 | 13409 ft | 350 kts | 270° |
| 2026-05-08 00:10 | 36.27198 | -86.92760 | 14279 ft | 352 kts | 270° |
| 2026-05-08 00:11 | 36.27192 | -86.95823 | 15097 ft | 354 kts | 270° |
| 2026-05-08 00:11 | 36.27187 | -86.98883 | 15870 ft | 357 kts | 271° |
| 2026-05-08 00:11 | 36.27180 | -87.01962 | 16611 ft | 360 kts | 271° |
| 2026-05-08 00:11 | 36.27174 | -87.05117 | 17200 ft | 367 kts | 271° |
| 2026-05-08 00:12 | 36.27166 | -87.08299 | 17836 ft | 372 kts | 271° |
| 2026-05-08 00:12 | 36.27156 | -87.11513 | 18512 ft | 374 kts | 271° |
| 2026-05-08 00:12 | 36.27146 | -87.14769 | 19174 ft | 377 kts | 271° |
| 2026-05-08 00:12 | 36.27147 | -87.18014 | 19809 ft | 379 kts | 272° |
| 2026-05-08 00:13 | 36.27270 | -87.21259 | 20413 ft | 382 kts | 276° |
| 2026-05-08 00:13 | 36.27552 | -87.24546 | 21012 ft | 384 kts | 278° |
| 2026-05-08 00:13 | 36.27985 | -87.27781 | 21570 ft | 387 kts | 281° |
| 2026-05-08 00:13 | 36.28508 | -87.31094 | 22143 ft | 389 kts | 282° |
| 2026-05-08 00:14 | 36.29032 | -87.34359 | 22693 ft | 392 kts | 282° |
| 2026-05-08 00:14 | 36.29568 | -87.37688 | 23229 ft | 394 kts | 282° |
| 2026-05-08 00:14 | 36.30107 | -87.41045 | 23748 ft | 397 kts | 282° |
| 2026-05-08 00:14 | 36.30647 | -87.44387 | 24241 ft | 400 kts | 282° |
| 2026-05-08 00:15 | 36.31346 | -87.47765 | 24730 ft | 402 kts | 287° |
| 2026-05-08 00:15 | 36.32264 | -87.51015 | 25213 ft | 405 kts | 291° |
| 2026-05-08 00:15 | 36.33429 | -87.54222 | 25688 ft | 408 kts | 296° |
| 2026-05-08 00:15 | 36.34768 | -87.57326 | 26141 ft | 410 kts | 297° |
| 2026-05-08 00:16 | 36.36131 | -87.60371 | 26712 ft | 409 kts | 297° |
| 2026-05-08 00:16 | 36.37512 | -87.63443 | 27372 ft | 406 kts | 297° |
| 2026-05-08 00:16 | 36.38892 | -87.66518 | 28024 ft | 403 kts | 297° |
| 2026-05-08 00:16 | 36.40244 | -87.69546 | 28635 ft | 400 kts | 297° |
| 2026-05-08 00:17 | 36.41588 | -87.72555 | 29222 ft | 398 kts | 297° |
| 2026-05-08 00:17 | 36.42915 | -87.75524 | 29782 ft | 396 kts | 297° |
| 2026-05-08 00:17 | 36.44253 | -87.78516 | 30308 ft | 394 kts | 297° |
| 2026-05-08 00:17 | 36.45581 | -87.81486 | 30824 ft | 392 kts | 297° |
| 2026-05-08 00:18 | 36.46898 | -87.84435 | 31347 ft | 390 kts | 297° |
| 2026-05-08 00:18 | 36.48211 | -87.87374 | 31850 ft | 388 kts | 297° |
| 2026-05-08 00:18 | 36.49527 | -87.90321 | 32365 ft | 386 kts | 297° |
| 2026-05-08 00:18 | 36.50737 | -87.93034 | 32851 ft | 384 kts | 297° |
| 2026-05-08 00:19 | 36.52035 | -87.95938 | 33351 ft | 382 kts | 297° |
| 2026-05-08 00:19 | 36.53310 | -87.98795 | 33816 ft | 381 kts | 297° |
| 2026-05-08 00:19 | 36.54599 | -88.01687 | 34293 ft | 380 kts | 297° |
| 2026-05-08 00:19 | 36.55752 | -88.04280 | 34718 ft | 378 kts | 297° |
| 2026-05-08 00:20 | 36.57027 | -88.07149 | 35167 ft | 377 kts | 297° |
| 2026-05-08 00:20 | 36.58294 | -88.10004 | 35610 ft | 376 kts | 297° |
| 2026-05-08 00:20 | 36.59511 | -88.12744 | 36021 ft | 375 kts | 297° |
| 2026-05-08 00:20 | 36.60720 | -88.15487 | 36418 ft | 374 kts | 296° |
| 2026-05-08 00:21 | 36.61909 | -88.18430 | 36767 ft | 374 kts | 294° |
| 2026-05-08 00:21 | 36.62965 | -88.21390 | 37049 ft | 376 kts | 292° |
| 2026-05-08 00:21 | 36.63906 | -88.24401 | 37307 ft | 378 kts | 289° |
| 2026-05-08 00:21 | 36.64691 | -88.27297 | 37546 ft | 380 kts | 288° |
| 2026-05-08 00:22 | 36.65430 | -88.30494 | 37803 ft | 381 kts | 285° |
| 2026-05-08 00:22 | 36.66040 | -88.33706 | 38021 ft | 384 kts | 283° |
| 2026-05-08 00:22 | 36.67116 | -88.40280 | 38062 ft | 385 kts | 283° |
| 2026-05-08 00:23 | 36.68172 | -88.46808 | 38067 ft | 385 kts | 283° |
| 2026-05-08 00:23 | 36.69204 | -88.53254 | 38064 ft | 385 kts | 282° |
| 2026-05-08 00:24 | 36.70248 | -88.59789 | 38065 ft | 385 kts | 282° |
| 2026-05-08 00:24 | 36.71229 | -88.65979 | 38068 ft | 386 kts | 282° |
| 2026-05-08 00:25 | 36.72247 | -88.72433 | 38062 ft | 385 kts | 282° |
| 2026-05-08 00:25 | 36.73278 | -88.79010 | 38061 ft | 385 kts | 282° |
| 2026-05-08 00:26 | 36.74294 | -88.85489 | 38058 ft | 385 kts | 282° |
| 2026-05-08 00:26 | 36.75325 | -88.92082 | 38058 ft | 385 kts | 282° |
| 2026-05-08 00:27 | 36.76317 | -88.98447 | 38060 ft | 386 kts | 282° |
| 2026-05-08 00:27 | 36.77344 | -89.05068 | 38062 ft | 386 kts | 282° |